Holly Hill, Florida
Current Conditions -  °F | °C
As of 10:53 PM on Sunday 25 Jan 2015 (Local Time) from KDAB Reporting Station
Overcast Overcast  
Wind Chill: 12°   Ceiling: 13000
Heat Index: 12°   Visibility: 10mi
Dew Point:   Wind: 5mph
Humidity: 74%   Direction: 200°SSW
Pressure: 29.96"   Gusts: NA
Location:  29.25°N, 81.04°W
Report Text: KDAB 260353Z 20004KT 10SM OVC130 12/07 A2996 RMK AO2 SLP144 T01170072
Loading
Personal Weather Stations






























Interactive Weather Map New forecast layout! Learn more

10-Day Weather Forecast

Advertisements
Track Severe Weather on mobile